This is the latest recevied weather packets stored in our database for station/object K7CTM. If no packets are shown the sender has not sent any weather packets the latest 10 day(s).
| Time | Temp. | Humidity | Pressure | Rain* | Wind** | Luminosity | Snow |
|---|---|---|---|---|---|---|---|
| 1778137777 | 11.11° C | 70% | 1021.3 hPa | 0 mm | - | 0 W/m² | - |
| 1778137474 | 11.11° C | 73% | 1021.6 hPa | 0 mm | - | 0 W/m² | - |
| 1778137170 | 11.11° C | 72% | 1021.3 hPa | 0 mm | - | 0 W/m² | - |
| 1778136867 | 10.56° C | 77% | 1021 hPa | 0 mm | - | 0 W/m² | - |
| 1778136565 | 11.11° C | 75% | 1021.2 hPa | 1.27 mm | - | 0 W/m² | - |
| 1778136263 | 11.11° C | 74% | 1021.1 hPa | 3.05 mm | - | 0 W/m² | - |
| 1778135961 | 12.78° C | 64% | 1021.9 hPa | 1.78 mm | - | 0 W/m² | - |
| 1778135657 | 13.33° C | 58% | 1021.4 hPa | 0 mm | - | 0 W/m² | - |
| 1778135354 | 13.33° C | 54% | 1021.1 hPa | 0 mm | - | 0 W/m² | - |
| 1778135051 | 12.78° C | 51% | 1020.8 hPa | 0 mm | - | 0 W/m² | - |
| 1778134744 | 11.11° C | 51% | 1021.2 hPa | 0 mm | - | 0 W/m² | - |
| 1778134441 | 12.78° C | 47% | 1020.7 hPa | 0 mm | - | 0 W/m² | - |
| 1778134140 | 13.33° C | 40% | 1020.2 hPa | 0 mm | - | 0 W/m² | - |
| 1778133835 | 13.33° C | 36% | 1019.9 hPa | 0 mm | - | 0 W/m² | - |
| 1778133532 | 13.33° C | 37% | 1019.7 hPa | 0 mm | - | 0 W/m² | - |
| 1778133227 | 13.33° C | 37% | 1019.7 hPa | 0 mm | - | 0 W/m² | - |
| 1778132924 | 12.78° C | 37% | 1019.4 hPa | 0 mm | - | 0 W/m² | - |
| 1778132620 | 13.33° C | 38% | 1019.7 hPa | 0 mm | - | 0 W/m² | - |
| 1778132317 | 13.33° C | 37% | 1019.8 hPa | 0 mm | - | 0 W/m² | - |
| 1778132015 | 13.89° C | 38% | 1019.6 hPa | 0 mm | - | 0 W/m² | - |
| 1778131714 | 13.89° C | 36% | 1019.6 hPa | 0 mm | - | 0 W/m² | - |
| 1778131410 | 15° C | 33% | 1019.7 hPa | 0 mm | - | 0 W/m² | - |
| 1778131108 | 15° C | 33% | 1019.6 hPa | 0 mm | - | 0 W/m² | - |
| 1778130805 | 15° C | 32% | 1019.4 hPa | 0 mm | - | 0 W/m² | - |
| 1778130502 | 15° C | 32% | 1019.6 hPa | 0 mm | - | 0 W/m² | - |
* Rain latest hour (hover to see other rain measurements)
** Current wind speed in m/s (hover to see current wind gust speed)